sensor_id;sensor_type;location;lat;lon;timestamp;pressure;altitude;pressure_sealevel;temperature;humidity
42067;BME280;27734;47.028;28.820;2023-07-20T00:02:02;99739.66;;;24.43;56.67
42067;BME280;27734;47.028;28.820;2023-07-20T00:04:33;99759.36;;;24.15;57.43
42067;BME280;27734;47.028;28.820;2023-07-20T00:07:01;99754.77;;;23.91;57.74
42067;BME280;27734;47.028;28.820;2023-07-20T00:09:30;99747.31;;;23.71;58.23
42067;BME280;27734;47.028;28.820;2023-07-20T00:11:59;99728.80;;;23.63;58.95
42067;BME280;27734;47.028;28.820;2023-07-20T00:14:28;99735.16;;;23.59;58.58
42067;BME280;27734;47.028;28.820;2023-07-20T00:16:57;99737.97;;;23.54;58.54
42067;BME280;27734;47.028;28.820;2023-07-20T00:19:26;99744.27;;;23.53;59.35
42067;BME280;27734;47.028;28.820;2023-07-20T00:21:56;99736.38;;;23.48;59.11
42067;BME280;27734;47.028;28.820;2023-07-20T00:24:24;99725.71;;;23.47;59.57
42067;BME280;27734;47.028;28.820;2023-07-20T00:26:53;99724.77;;;23.48;59.30
42067;BME280;27734;47.028;28.820;2023-07-20T00:29:22;99726.58;;;23.47;59.63
42067;BME280;27734;47.028;28.820;2023-07-20T00:31:50;99725.76;;;23.45;59.73
42067;BME280;27734;47.028;28.820;2023-07-20T00:34:19;99719.50;;;23.45;59.83
42067;BME280;27734;47.028;28.820;2023-07-20T00:36:47;99721.27;;;23.46;59.61
42067;BME280;27734;47.028;28.820;2023-07-20T00:39:16;99744.45;;;23.47;60.27
42067;BME280;27734;47.028;28.820;2023-07-20T00:41:45;99751.72;;;23.42;60.16
42067;BME280;27734;47.028;28.820;2023-07-20T00:44:13;99743.05;;;23.33;60.59
42067;BME280;27734;47.028;28.820;2023-07-20T00:46:42;99737.17;;;23.21;60.82
42067;BME280;27734;47.028;28.820;2023-07-20T00:49:12;99741.91;;;23.11;61.32
42067;BME280;27734;47.028;28.820;2023-07-20T00:51:40;99758.06;;;23.06;61.82
42067;BME280;27734;47.028;28.820;2023-07-20T00:54:10;99760.00;;;23.00;61.98
42067;BME280;27734;47.028;28.820;2023-07-20T00:56:39;99758.36;;;22.95;61.97
42067;BME280;27734;47.028;28.820;2023-07-20T00:59:08;99745.84;;;22.96;61.82
42067;BME280;27734;47.028;28.820;2023-07-20T01:01:37;99760.09;;;22.96;62.08
42067;BME280;27734;47.028;28.820;2023-07-20T01:04:06;99745.89;;;22.94;62.81
42067;BME280;27734;47.028;28.820;2023-07-20T01:06:39;99735.23;;;22.93;62.55
42067;BME280;27734;47.028;28.820;2023-07-20T01:09:15;99724.57;;;22.91;62.98
42067;BME280;27734;47.028;28.820;2023-07-20T01:11:51;99731.77;;;22.89;63.02
42067;BME280;27734;47.028;28.820;2023-07-20T01:14:22;99732.02;;;22.80;63.35
42067;BME280;27734;47.028;28.820;2023-07-20T01:16:51;99727.70;;;22.74;63.46
42067;BME280;27734;47.028;28.820;2023-07-20T01:19:20;99710.70;;;22.77;63.48
42067;BME280;27734;47.028;28.820;2023-07-20T01:21:53;99715.03;;;22.81;63.97
42067;BME280;27734;47.028;28.820;2023-07-20T01:24:49;99707.95;;;22.80;63.53
42067;BME280;27734;47.028;28.820;2023-07-20T01:27:49;99714.20;;;22.79;63.79
42067;BME280;27734;47.028;28.820;2023-07-20T01:30:43;99708.94;;;22.76;64.03
42067;BME280;27734;47.028;28.820;2023-07-20T01:33:14;99714.28;;;22.76;64.03
42067;BME280;27734;47.028;28.820;2023-07-20T01:35:47;99705.44;;;22.74;64.18
42067;BME280;27734;47.028;28.820;2023-07-20T01:38:16;99699.02;;;22.79;64.37
42067;BME280;27734;47.028;28.820;2023-07-20T01:40:47;99700.70;;;22.84;64.11
42067;BME280;27734;47.028;28.820;2023-07-20T01:43:15;99705.02;;;22.89;64.72
42067;BME280;27734;47.028;28.820;2023-07-20T01:45:44;99703.13;;;22.93;64.27
42067;BME280;27734;47.028;28.820;2023-07-20T01:48:15;99694.16;;;22.95;64.71
42067;BME280;27734;47.028;28.820;2023-07-20T01:50:43;99693.21;;;22.96;64.61
42067;BME280;27734;47.028;28.820;2023-07-20T01:53:12;99679.96;;;22.92;64.23
42067;BME280;27734;47.028;28.820;2023-07-20T01:55:40;99684.45;;;22.91;64.25
42067;BME280;27734;47.028;28.820;2023-07-20T01:58:09;99687.95;;;22.93;64.49
42067;BME280;27734;47.028;28.820;2023-07-20T02:00:38;99691.56;;;22.92;64.65
42067;BME280;27734;47.028;28.820;2023-07-20T02:03:07;99690.70;;;22.90;64.66
42067;BME280;27734;47.028;28.820;2023-07-20T02:05:36;99683.67;;;22.88;64.64
42067;BME280;27734;47.028;28.820;2023-07-20T02:08:05;99688.16;;;22.86;64.72
42067;BME280;27734;47.028;28.820;2023-07-20T02:10:33;99687.30;;;22.85;64.47
42067;BME280;27734;47.028;28.820;2023-07-20T02:13:02;99680.14;;;22.86;64.94
42067;BME280;27734;47.028;28.820;2023-07-20T02:15:30;99683.75;;;22.85;64.91
42067;BME280;27734;47.028;28.820;2023-07-20T02:17:59;99683.70;;;22.86;64.64
42067;BME280;27734;47.028;28.820;2023-07-20T02:20:27;99674.83;;;22.84;64.94
42067;BME280;27734;47.028;28.820;2023-07-20T02:22:56;99673.18;;;22.80;64.79
42067;BME280;27734;47.028;28.820;2023-07-20T02:25:24;99675.94;;;22.77;65.02
42067;BME280;27734;47.028;28.820;2023-07-20T02:27:53;99676.97;;;22.71;65.14
42067;BME280;27734;47.028;28.820;2023-07-20T02:30:22;99678.82;;;22.69;64.95
42067;BME280;27734;47.028;28.820;2023-07-20T02:32:50;99674.55;;;22.62;64.96
42067;BME280;27734;47.028;28.820;2023-07-20T02:35:19;99666.56;;;22.60;65.21
42067;BME280;27734;47.028;28.820;2023-07-20T02:37:47;99664.75;;;22.63;65.70
42067;BME280;27734;47.028;28.820;2023-07-20T02:40:17;99665.58;;;22.65;65.48
42067;BME280;27734;47.028;28.820;2023-07-20T02:42:45;99664.63;;;22.66;65.70
42067;BME280;27734;47.028;28.820;2023-07-20T02:45:14;99664.63;;;22.66;65.73
42067;BME280;27734;47.028;28.820;2023-07-20T02:47:43;99664.63;;;22.66;65.70
42067;BME280;27734;47.028;28.820;2023-07-20T02:50:13;99667.27;;;22.67;65.59
42067;BME280;27734;47.028;28.820;2023-07-20T02:52:44;99667.27;;;22.67;65.55
42067;BME280;27734;47.028;28.820;2023-07-20T02:55:13;99668.99;;;22.70;66.04
42067;BME280;27734;47.028;28.820;2023-07-20T02:57:41;99669.81;;;22.72;66.04
42067;BME280;27734;47.028;28.820;2023-07-20T03:00:12;99676.89;;;22.74;66.15
42067;BME280;27734;47.028;28.820;2023-07-20T03:02:44;99668.78;;;22.77;65.92
42067;BME280;27734;47.028;28.820;2023-07-20T03:05:15;99672.28;;;22.79;66.53
42067;BME280;27734;47.028;28.820;2023-07-20T03:07:44;99680.27;;;22.81;66.00
42067;BME280;27734;47.028;28.820;2023-07-20T03:10:13;99680.17;;;22.84;65.81
42067;BME280;27734;47.028;28.820;2023-07-20T03:12:41;99680.95;;;22.89;66.41
42067;BME280;27734;47.028;28.820;2023-07-20T03:15:11;99684.41;;;22.93;66.45
42067;BME280;27734;47.028;28.820;2023-07-20T03:17:40;99678.97;;;22.96;66.09
42067;BME280;27734;47.028;28.820;2023-07-20T03:20:11;99677.97;;;23.00;66.12
42067;BME280;27734;47.028;28.820;2023-07-20T03:22:40;99674.18;;;23.07;66.15
42067;BME280;27734;47.028;28.820;2023-07-20T03:25:09;99675.80;;;23.14;66.31
42067;BME280;27734;47.028;28.820;2023-07-20T03:27:38;99670.31;;;23.19;66.02
42067;BME280;27734;47.028;28.820;2023-07-20T03:30:09;99671.05;;;23.24;65.99
42067;BME280;27734;47.028;28.820;2023-07-20T03:32:39;99670.09;;;23.27;66.04
42067;BME280;27734;47.028;28.820;2023-07-20T03:35:09;99675.44;;;23.27;66.15
42067;BME280;27734;47.028;28.820;2023-07-20T03:37:38;99664.69;;;23.28;65.79
42067;BME280;27734;47.028;28.820;2023-07-20T03:40:08;99670.73;;;23.35;65.83
42067;BME280;27734;47.028;28.820;2023-07-20T03:42:38;99665.23;;;23.40;66.01
42067;BME280;27734;47.028;28.820;2023-07-20T03:45:09;99662.38;;;23.46;66.53
42067;BME280;27734;47.028;28.820;2023-07-20T03:47:37;99667.54;;;23.52;65.97
42067;BME280;27734;47.028;28.820;2023-07-20T03:50:08;99671.03;;;23.54;65.81
42067;BME280;27734;47.028;28.820;2023-07-20T03:52:37;99669.26;;;23.55;65.75
42067;BME280;27734;47.028;28.820;2023-07-20T03:55:08;99670.94;;;23.57;65.65
42067;BME280;27734;47.028;28.820;2023-07-20T03:57:36;99683.23;;;23.64;65.91
42067;BME280;27734;47.028;28.820;2023-07-20T04:00:10;99683.13;;;23.67;65.93
42067;BME280;27734;47.028;28.820;2023-07-20T04:02:42;99690.39;;;23.64;65.93
42067;BME280;27734;47.028;28.820;2023-07-20T04:05:11;99689.59;;;23.60;66.21
42067;BME280;27734;47.028;28.820;2023-07-20T04:07:39;99692.36;;;23.57;65.56
42067;BME280;27734;47.028;28.820;2023-07-20T04:10:09;99692.64;;;23.48;65.78
42067;BME280;27734;47.028;28.820;2023-07-20T04:12:38;99686.56;;;23.43;66.54
42067;BME280;27734;47.028;28.820;2023-07-20T04:15:09;99684.84;;;23.40;66.18
42067;BME280;27734;47.028;28.820;2023-07-20T04:17:40;99685.69;;;23.42;66.01
42067;BME280;27734;47.028;28.820;2023-07-20T04:20:11;99679.58;;;23.37;66.50
42067;BME280;27734;47.028;28.820;2023-07-20T04:22:40;99687.02;;;23.27;66.29
42067;BME280;27734;47.028;28.820;2023-07-20T04:25:13;99679.16;;;23.21;66.67
42067;BME280;27734;47.028;28.820;2023-07-20T04:27:41;99675.63;;;23.21;66.56
42067;BME280;27734;47.028;28.820;2023-07-20T04:30:12;99678.34;;;23.19;66.98
42067;BME280;27734;47.028;28.820;2023-07-20T04:32:41;99673.03;;;23.18;66.57
42067;BME280;27734;47.028;28.820;2023-07-20T04:35:26;99681.93;;;23.18;66.79
42067;BME280;27734;47.028;28.820;2023-07-20T04:38:09;99686.23;;;23.24;67.27
42067;BME280;27734;47.028;28.820;2023-07-20T04:40:46;99689.69;;;23.27;66.84
42067;BME280;27734;47.028;28.820;2023-07-20T04:43:16;99686.83;;;23.33;67.06
42067;BME280;27734;47.028;28.820;2023-07-20T04:45:47;99679.39;;;23.43;67.42
42067;BME280;27734;47.028;28.820;2023-07-20T04:48:16;99676.39;;;23.54;66.99
42067;BME280;27734;47.028;28.820;2023-07-20T04:50:56;99679.83;;;23.59;67.21
42067;BME280;27734;47.028;28.820;2023-07-20T04:53:25;99683.08;;;23.69;67.72
42067;BME280;27734;47.028;28.820;2023-07-20T04:55:54;99684.48;;;23.81;66.71
42067;BME280;27734;47.028;28.820;2023-07-20T04:58:24;99682.66;;;23.83;67.22
42067;BME280;27734;47.028;28.820;2023-07-20T05:00:54;99684.41;;;23.84;67.30
42067;BME280;27734;47.028;28.820;2023-07-20T05:03:22;99682.66;;;23.83;67.27
42067;BME280;27734;47.028;28.820;2023-07-20T05:05:51;99687.25;;;23.78;66.99
42067;BME280;27734;47.028;28.820;2023-07-20T05:08:20;99678.55;;;23.71;67.00
42067;BME280;27734;47.028;28.820;2023-07-20T05:10:50;99677.78;;;23.67;67.20
42067;BME280;27734;47.028;28.820;2023-07-20T05:13:19;99674.33;;;23.64;67.09
42067;BME280;27734;47.028;28.820;2023-07-20T05:15:50;99669.98;;;23.60;67.17
42067;BME280;27734;47.028;28.820;2023-07-20T05:18:19;99671.94;;;23.55;67.17
42067;BME280;27734;47.028;28.820;2023-07-20T05:20:49;99680.02;;;23.53;67.33
42067;BME280;27734;47.028;28.820;2023-07-20T05:23:29;99677.38;;;23.51;67.34
42067;BME280;27734;47.028;28.820;2023-07-20T05:25:59;99676.39;;;23.54;67.36
42067;BME280;27734;47.028;28.820;2023-07-20T05:28:29;99678.06;;;23.58;67.32
42067;BME280;27734;47.028;28.820;2023-07-20T05:30:58;99674.28;;;23.65;67.54
42067;BME280;27734;47.028;28.820;2023-07-20T05:33:27;99674.81;;;23.77;67.44
42067;BME280;27734;47.028;28.820;2023-07-20T05:35:56;99673.50;;;23.90;67.34
42067;BME280;27734;47.028;28.820;2023-07-20T05:38:24;99674.97;;;24.00;67.26
42067;BME280;27734;47.028;28.820;2023-07-20T05:40:58;99667.55;;;24.09;66.94
42067;BME280;27734;47.028;28.820;2023-07-20T05:43:27;99678.95;;;24.15;66.82
42067;BME280;27734;47.028;28.820;2023-07-20T05:45:56;99677.05;;;24.19;67.02
42067;BME280;27734;47.028;28.820;2023-07-20T05:48:25;99686.61;;;24.26;67.28
42067;BME280;27734;47.028;28.820;2023-07-20T05:50:53;99690.84;;;24.33;67.14
42067;BME280;27734;47.028;28.820;2023-07-20T05:53:22;99687.14;;;24.37;67.16
42067;BME280;27734;47.028;28.820;2023-07-20T05:55:54;99681.58;;;24.44;66.76
42067;BME280;27734;47.028;28.820;2023-07-20T05:58:23;99681.42;;;24.48;66.87
42067;BME280;27734;47.028;28.820;2023-07-20T06:00:56;99675.00;;;24.52;67.00
42067;BME280;27734;47.028;28.820;2023-07-20T06:03:26;99669.50;;;24.57;66.81
42067;BME280;27734;47.028;28.820;2023-07-20T06:06:00;99666.72;;;24.60;67.00
42067;BME280;27734;47.028;28.820;2023-07-20T06:08:31;99664.03;;;24.60;66.70
42067;BME280;27734;47.028;28.820;2023-07-20T06:11:00;99664.03;;;24.60;66.80
42067;BME280;27734;47.028;28.820;2023-07-20T06:13:41;99664.14;;;24.57;66.40
42067;BME280;27734;47.028;28.820;2023-07-20T06:16:18;99673.09;;;24.57;66.47
42067;BME280;27734;47.028;28.820;2023-07-20T06:18:48;99677.33;;;24.63;66.49
42067;BME280;27734;47.028;28.820;2023-07-20T06:21:17;99670.02;;;24.68;66.26
42067;BME280;27734;47.028;28.820;2023-07-20T06:23:48;99673.30;;;24.76;66.51
42067;BME280;27734;47.028;28.820;2023-07-20T06:26:28;99677.49;;;24.84;66.78
42067;BME280;27734;47.028;28.820;2023-07-20T06:28:58;99679.20;;;24.86;66.09
42067;BME280;27734;47.028;28.820;2023-07-20T06:31:35;99680.84;;;24.90;66.53
42067;BME280;27734;47.028;28.820;2023-07-20T06:34:04;99678.92;;;24.94;66.17
42067;BME280;27734;47.028;28.820;2023-07-20T06:36:33;99665.33;;;24.99;66.44
42067;BME280;27734;47.028;28.820;2023-07-20T06:39:03;99664.23;;;25.04;65.93
42067;BME280;27734;47.028;28.820;2023-07-20T06:41:34;99665.63;;;25.15;66.07
42067;BME280;27734;47.028;28.820;2023-07-20T06:44:05;99673.27;;;25.25;66.19
42067;BME280;27734;47.028;28.820;2023-07-20T06:46:36;99668.57;;;25.32;65.52
42067;BME280;27734;47.028;28.820;2023-07-20T06:49:07;99670.91;;;25.41;65.87
42067;BME280;27734;47.028;28.820;2023-07-20T06:51:39;99662.19;;;25.58;66.03
42067;BME280;27734;47.028;28.820;2023-07-20T06:54:12;99664.33;;;25.72;65.45
42067;BME280;27734;47.028;28.820;2023-07-20T06:56:41;99655.95;;;25.80;65.44
42067;BME280;27734;47.028;28.820;2023-07-20T06:59:23;99661.02;;;25.88;65.14
42067;BME280;27734;47.028;28.820;2023-07-20T07:01:52;99661.41;;;26.00;64.94
42067;BME280;27734;47.028;28.820;2023-07-20T07:04:29;99660.17;;;26.09;64.42
42067;BME280;27734;47.028;28.820;2023-07-20T07:06:58;99662.34;;;26.22;64.64
42067;BME280;27734;47.028;28.820;2023-07-20T07:09:28;99665.37;;;26.34;63.93
42067;BME280;27734;47.028;28.820;2023-07-20T07:11:59;99652.27;;;26.47;63.83
42067;BME280;27734;47.028;28.820;2023-07-20T07:14:28;99660.39;;;26.68;63.79
42067;BME280;27734;47.028;28.820;2023-07-20T07:17:01;99660.05;;;26.76;63.17
42067;BME280;27734;47.028;28.820;2023-07-20T07:19:33;99657.68;;;26.88;62.91
42067;BME280;27734;47.028;28.820;2023-07-20T07:22:16;99658.43;;;27.11;62.46
42067;BME280;27734;47.028;28.820;2023-07-20T07:24:49;99664.69;;;27.32;62.59
42067;BME280;27734;47.028;28.820;2023-07-20T07:27:18;99663.89;;;27.49;61.96
42067;BME280;27734;47.028;28.820;2023-07-20T07:29:51;99655.86;;;27.67;61.74
42067;BME280;27734;47.028;28.820;2023-07-20T07:32:23;99650.20;;;27.90;61.49
42067;BME280;27734;47.028;28.820;2023-07-20T07:34:56;99648.30;;;28.11;61.63
42067;BME280;27734;47.028;28.820;2023-07-20T07:40:15;99649.36;;;28.44;60.45
42067;BME280;27734;47.028;28.820;2023-07-20T07:42:46;99655.30;;;28.50;60.13
42067;BME280;27734;47.028;28.820;2023-07-20T07:45:21;99652.94;;;28.62;59.65
42067;BME280;27734;47.028;28.820;2023-07-20T07:48:03;99647.09;;;28.87;59.47
42067;BME280;27734;47.028;28.820;2023-07-20T07:50:36;99643.57;;;29.02;59.19
42067;BME280;27734;47.028;28.820;2023-07-20T07:53:16;99648.47;;;29.12;57.59
42067;BME280;27734;47.028;28.820;2023-07-20T07:55:51;99657.86;;;29.22;56.99
42067;BME280;27734;47.028;28.820;2023-07-20T07:58:34;99657.77;;;29.24;56.86
42067;BME280;27734;47.028;28.820;2023-07-20T08:04:18;99651.61;;;29.37;55.10
42067;BME280;27734;47.028;28.820;2023-07-20T08:06:51;99652.98;;;29.45;55.10
42067;BME280;27734;47.028;28.820;2023-07-20T08:09:24;99653.88;;;29.61;54.24
42067;BME280;27734;47.028;28.820;2023-07-20T08:12:27;99651.34;;;29.90;54.04
42067;BME280;27734;47.028;28.820;2023-07-20T08:18:29;99639.68;;;30.20;53.22
42067;BME280;27734;47.028;28.820;2023-07-20T08:21:13;99647.87;;;30.34;52.68
42067;BME280;27734;47.028;28.820;2023-07-20T08:23:51;99645.53;;;30.28;52.34
42067;BME280;27734;47.028;28.820;2023-07-20T08:26:20;99647.53;;;30.40;52.21
42067;BME280;27734;47.028;28.820;2023-07-20T08:28:50;99639.72;;;30.50;51.37
42067;BME280;27734;47.028;28.820;2023-07-20T08:31:28;99638.97;;;30.62;50.74
42067;BME280;27734;47.028;28.820;2023-07-20T08:34:06;99639.92;;;30.61;50.47
42067;BME280;27734;47.028;28.820;2023-07-20T08:36:55;99643.02;;;30.70;49.13
42067;BME280;27734;47.028;28.820;2023-07-20T08:39:26;99638.88;;;30.64;49.04
42067;BME280;27734;47.028;28.820;2023-07-20T08:42:07;99641.20;;;30.70;48.56
42067;BME280;27734;47.028;28.820;2023-07-20T08:44:45;99647.20;;;30.75;47.57
42067;BME280;27734;47.028;28.820;2023-07-20T08:47:35;99657.08;;;30.91;47.15
42067;BME280;27734;47.028;28.820;2023-07-20T08:50:11;99648.41;;;31.00;46.97
42067;BME280;27734;47.028;28.820;2023-07-20T08:52:58;99647.55;;;31.14;47.30
42067;BME280;27734;47.028;28.820;2023-07-20T08:55:27;99656.98;;;30.92;46.94
42067;BME280;27734;47.028;28.820;2023-07-20T08:58:13;99654.88;;;30.97;47.01
42067;BME280;27734;47.028;28.820;2023-07-20T09:01:24;99662.53;;;31.05;46.48
42067;BME280;27734;47.028;28.820;2023-07-20T09:04:26;99659.81;;;31.19;46.10
42067;BME280;27734;47.028;28.820;2023-07-20T09:06:59;99660.02;;;31.31;45.67
42067;BME280;27734;47.028;28.820;2023-07-20T09:09:31;99659.33;;;31.42;45.72
42067;BME280;27734;47.028;28.820;2023-07-20T09:12:06;99664.66;;;31.58;44.14
42067;BME280;27734;47.028;28.820;2023-07-20T09:14:45;99664.45;;;31.61;44.00
42067;BME280;27734;47.028;28.820;2023-07-20T09:17:17;99670.94;;;31.58;43.50
42067;BME280;27734;47.028;28.820;2023-07-20T09:19:50;99671.50;;;31.63;43.58
42067;BME280;27734;47.028;28.820;2023-07-20T09:22:22;99668.03;;;31.61;43.00
42067;BME280;27734;47.028;28.820;2023-07-20T09:24:58;99668.23;;;31.58;43.13
42067;BME280;27734;47.028;28.820;2023-07-20T09:27:38;99658.64;;;31.67;43.49
42067;BME280;27734;47.028;28.820;2023-07-20T09:30:08;99659.94;;;31.88;43.44
42067;BME280;27734;47.028;28.820;2023-07-20T09:32:42;99652.66;;;31.89;43.26
42067;BME280;27734;47.028;28.820;2023-07-20T09:35:17;99654.51;;;31.88;43.17
42067;BME280;27734;47.028;28.820;2023-07-20T09:37:48;99651.94;;;32.00;43.16
42067;BME280;27734;47.028;28.820;2023-07-20T09:40:20;99651.36;;;32.09;42.75
42067;BME280;27734;47.028;28.820;2023-07-20T09:42:54;99653.97;;;32.11;42.61
42067;BME280;27734;47.028;28.820;2023-07-20T09:45:31;99644.56;;;32.02;42.33
42067;BME280;27734;47.028;28.820;2023-07-20T09:48:05;99647.38;;;32.00;42.78
42067;BME280;27734;47.028;28.820;2023-07-20T09:50:35;99644.11;;;31.95;42.44
42067;BME280;27734;47.028;28.820;2023-07-20T09:53:11;99651.19;;;31.98;42.35
42067;BME280;27734;47.028;28.820;2023-07-20T09:55:43;99656.23;;;31.89;42.30
42067;BME280;27734;47.028;28.820;2023-07-20T09:58:13;99650.80;;;31.89;42.54
42067;BME280;27734;47.028;28.820;2023-07-20T10:00:48;99649.51;;;31.68;42.64
42067;BME280;27734;47.028;28.820;2023-07-20T10:03:21;99641.58;;;31.65;42.54
42067;BME280;27734;47.028;28.820;2023-07-20T10:06:00;99650.70;;;31.64;42.67
42067;BME280;27734;47.028;28.820;2023-07-20T10:08:32;99643.53;;;31.63;42.71
42067;BME280;27734;47.028;28.820;2023-07-20T10:11:08;99647.43;;;31.59;42.66
42067;BME280;27734;47.028;28.820;2023-07-20T10:14:04;99648.55;;;31.69;42.87
42067;BME280;27734;47.028;28.820;2023-07-20T10:16:41;99645.73;;;31.70;42.45
42067;BME280;27734;47.028;28.820;2023-07-20T10:19:27;99640.06;;;31.61;42.14
42067;BME280;27734;47.028;28.820;2023-07-20T10:22:06;99635.20;;;31.51;42.17
42067;BME280;27734;47.028;28.820;2023-07-20T10:24:47;99637.34;;;31.61;42.38
42067;BME280;27734;47.028;28.820;2023-07-20T10:27:18;99632.28;;;31.69;42.12
42067;BME280;27734;47.028;28.820;2023-07-20T10:29:51;99634.44;;;31.64;41.82
42067;BME280;27734;47.028;28.820;2023-07-20T10:32:44;99622.70;;;31.63;42.03
42067;BME280;27734;47.028;28.820;2023-07-20T10:35:31;99632.12;;;31.58;41.88
42067;BME280;27734;47.028;28.820;2023-07-20T10:38:42;99631.47;;;31.54;42.11
42067;BME280;27734;47.028;28.820;2023-07-20T10:41:29;99635.03;;;31.54;41.62
42067;BME280;27734;47.028;28.820;2023-07-20T10:44:04;99643.34;;;31.51;41.72
42067;BME280;27734;47.028;28.820;2023-07-20T10:46:43;99635.49;;;31.61;41.91
42067;BME280;27734;47.028;28.820;2023-07-20T10:49:14;99629.56;;;31.69;41.60
42067;BME280;27734;47.028;28.820;2023-07-20T10:51:44;99630.55;;;31.95;41.53
42067;BME280;27734;47.028;28.820;2023-07-20T10:57:24;99625.31;;;32.19;41.43
42067;BME280;27734;47.028;28.820;2023-07-20T11:00:18;99617.17;;;32.19;41.00
42067;BME280;27734;47.028;28.820;2023-07-20T11:02:51;99612.06;;;32.15;40.92
42067;BME280;27734;47.028;28.820;2023-07-20T11:08:47;99609.39;;;32.00;40.74
42067;BME280;27734;47.028;28.820;2023-07-20T11:11:23;99599.95;;;31.93;40.77
42067;BME280;27734;47.028;28.820;2023-07-20T11:13:58;99597.58;;;32.01;40.79
42067;BME280;27734;47.028;28.820;2023-07-20T11:16:37;99587.27;;;32.06;40.74
42067;BME280;27734;47.028;28.820;2023-07-20T11:19:23;99586.46;;;32.19;40.42
42067;BME280;27734;47.028;28.820;2023-07-20T11:21:57;99586.36;;;32.20;39.60
42067;BME280;27734;47.028;28.820;2023-07-20T11:24:31;99574.53;;;32.21;39.65
42067;BME280;27734;47.028;28.820;2023-07-20T11:27:03;99572.89;;;32.19;39.30
42067;BME280;27734;47.028;28.820;2023-07-20T11:29:34;99582.26;;;32.28;39.39
42067;BME280;27734;47.028;28.820;2023-07-20T11:32:09;99577.14;;;32.23;39.41
42067;BME280;27734;47.028;28.820;2023-07-20T11:34:51;99564.97;;;32.16;39.54
42067;BME280;27734;47.028;28.820;2023-07-20T11:37:33;99562.56;;;32.11;39.71
42067;BME280;27734;47.028;28.820;2023-07-20T11:40:07;99562.56;;;32.11;39.57
42067;BME280;27734;47.028;28.820;2023-07-20T11:42:42;99555.50;;;32.08;39.53
42067;BME280;27734;47.028;28.820;2023-07-20T11:45:20;99547.67;;;32.04;39.39
42067;BME280;27734;47.028;28.820;2023-07-20T11:48:04;99552.11;;;32.05;39.83
42067;BME280;27734;47.028;28.820;2023-07-20T11:50:45;99529.64;;;32.03;39.60
42067;BME280;27734;47.028;28.820;2023-07-20T11:53:25;99531.08;;;32.08;39.45
42067;BME280;27734;47.028;28.820;2023-07-20T11:56:17;99531.33;;;32.18;39.41
42067;BME280;27734;47.028;28.820;2023-07-20T11:58:49;99537.62;;;32.19;39.11
42067;BME280;27734;47.028;28.820;2023-07-20T12:01:19;99539.47;;;32.18;38.33
42067;BME280;27734;47.028;28.820;2023-07-20T12:03:51;99533.22;;;32.03;37.93
42067;BME280;27734;47.028;28.820;2023-07-20T12:06:28;99535.81;;;31.92;38.22
42067;BME280;27734;47.028;28.820;2023-07-20T12:09:14;99528.84;;;31.88;38.04
42067;BME280;27734;47.028;28.820;2023-07-20T12:11:54;99518.31;;;31.83;37.54
42067;BME280;27734;47.028;28.820;2023-07-20T12:14:35;99524.10;;;31.92;37.93
42067;BME280;27734;47.028;28.820;2023-07-20T12:17:09;99524.95;;;31.92;37.64
42067;BME280;27734;47.028;28.820;2023-07-20T12:19:46;99525.81;;;31.93;37.73
42067;BME280;27734;47.028;28.820;2023-07-20T12:22:21;99521.61;;;32.01;37.63
42067;BME280;27734;47.028;28.820;2023-07-20T12:24:58;99521.72;;;32.00;37.31
42067;BME280;27734;47.028;28.820;2023-07-20T12:27:31;99522.79;;;31.97;37.08
42067;BME280;27734;47.028;28.820;2023-07-20T12:30:08;99513.36;;;31.90;37.13
42067;BME280;27734;47.028;28.820;2023-07-20T12:32:40;99511.94;;;31.97;37.39
42067;BME280;27734;47.028;28.820;2023-07-20T12:35:27;99512.72;;;31.99;37.41
42067;BME280;27734;47.028;28.820;2023-07-20T12:38:00;99508.91;;;32.02;37.74
42067;BME280;27734;47.028;28.820;2023-07-20T12:40:30;99501.34;;;32.07;37.55
42067;BME280;27734;47.028;28.820;2023-07-20T12:43:01;99503.48;;;32.02;37.96
42067;BME280;27734;47.028;28.820;2023-07-20T12:45:30;99498.73;;;32.05;37.43
42067;BME280;27734;47.028;28.820;2023-07-20T12:47:59;99507.63;;;32.07;37.30
42067;BME280;27734;47.028;28.820;2023-07-20T12:50:41;99502.52;;;32.03;37.20
42067;BME280;27734;47.028;28.820;2023-07-20T12:53:13;99504.91;;;31.95;37.57
42067;BME280;27734;47.028;28.820;2023-07-20T12:55:50;99508.58;;;31.94;37.67
42067;BME280;27734;47.028;28.820;2023-07-20T12:58:19;99501.61;;;31.89;37.54
42067;BME280;27734;47.028;28.820;2023-07-20T13:00:48;99504.80;;;31.96;37.67
42067;BME280;27734;47.028;28.820;2023-07-20T13:03:29;99511.08;;;31.97;37.69
42067;BME280;27734;47.028;28.820;2023-07-20T13:06:01;99518.05;;;32.01;37.49
42067;BME280;27734;47.028;28.820;2023-07-20T13:08:34;99512.19;;;32.07;37.66
42067;BME280;27734;47.028;28.820;2023-07-20T13:11:05;99512.77;;;32.12;37.59
42067;BME280;27734;47.028;28.820;2023-07-20T13:13:36;99512.30;;;32.05;37.42
42067;BME280;27734;47.028;28.820;2023-07-20T13:16:07;99512.41;;;32.04;37.19
42067;BME280;27734;47.028;28.820;2023-07-20T13:18:36;99516.62;;;32.08;37.67
42067;BME280;27734;47.028;28.820;2023-07-20T13:21:06;99512.55;;;32.15;37.70
42067;BME280;27734;47.028;28.820;2023-07-20T13:23:45;99504.84;;;32.22;37.60
42067;BME280;27734;47.028;28.820;2023-07-20T13:26:18;99506.16;;;32.29;37.56
42067;BME280;27734;47.028;28.820;2023-07-20T13:28:47;99513.52;;;32.27;37.33
42067;BME280;27734;47.028;28.820;2023-07-20T13:31:18;99504.95;;;32.20;37.24
42067;BME280;27734;47.028;28.820;2023-07-20T13:33:49;99513.19;;;32.19;37.53
42067;BME280;27734;47.028;28.820;2023-07-20T13:36:25;99508.41;;;32.22;37.44
42067;BME280;27734;47.028;28.820;2023-07-20T13:38:56;99509.09;;;32.26;37.33